sensor_id;sensor_type;location;lat;lon;timestamp;P1;durP1;ratioP1;P2;durP2;ratioP2
5696;SDS011;2873;50.966;7.210;2023-01-26T00:01:08;41.50;;;17.02;;
5696;SDS011;2873;50.966;7.210;2023-01-26T00:03:44;38.55;;;16.02;;
5696;SDS011;2873;50.966;7.210;2023-01-26T00:06:11;45.92;;;18.10;;
5696;SDS011;2873;50.966;7.210;2023-01-26T00:08:41;40.23;;;17.87;;
5696;SDS011;2873;50.966;7.210;2023-01-26T00:11:09;42.17;;;17.52;;
5696;SDS011;2873;50.966;7.210;2023-01-26T00:13:36;44.42;;;17.70;;
5696;SDS011;2873;50.966;7.210;2023-01-26T00:16:02;36.22;;;15.55;;
5696;SDS011;2873;50.966;7.210;2023-01-26T00:18:28;37.78;;;16.15;;
5696;SDS011;2873;50.966;7.210;2023-01-26T00:20:55;32.15;;;14.45;;
5696;SDS011;2873;50.966;7.210;2023-01-26T00:23:25;38.20;;;16.50;;
5696;SDS011;2873;50.966;7.210;2023-01-26T00:25:52;49.40;;;18.15;;
5696;SDS011;2873;50.966;7.210;2023-01-26T00:28:17;48.80;;;19.15;;
5696;SDS011;2873;50.966;7.210;2023-01-26T00:30:43;49.13;;;18.77;;
5696;SDS011;2873;50.966;7.210;2023-01-26T00:33:09;54.60;;;20.60;;
5696;SDS011;2873;50.966;7.210;2023-01-26T00:35:34;44.42;;;18.30;;
5696;SDS011;2873;50.966;7.210;2023-01-26T00:38:00;52.10;;;19.17;;
5696;SDS011;2873;50.966;7.210;2023-01-26T00:40:25;51.50;;;19.00;;
5696;SDS011;2873;50.966;7.210;2023-01-26T00:42:51;50.47;;;18.43;;
5696;SDS011;2873;50.966;7.210;2023-01-26T00:45:18;49.78;;;18.48;;
5696;SDS011;2873;50.966;7.210;2023-01-26T00:47:46;58.58;;;20.30;;
5696;SDS011;2873;50.966;7.210;2023-01-26T00:50:12;49.53;;;18.80;;
5696;SDS011;2873;50.966;7.210;2023-01-26T00:52:38;56.40;;;19.07;;
5696;SDS011;2873;50.966;7.210;2023-01-26T00:55:03;46.03;;;16.97;;
5696;SDS011;2873;50.966;7.210;2023-01-26T00:57:29;55.75;;;18.90;;
5696;SDS011;2873;50.966;7.210;2023-01-26T00:59:55;52.05;;;19.48;;
5696;SDS011;2873;50.966;7.210;2023-01-26T01:02:20;52.00;;;19.27;;
5696;SDS011;2873;50.966;7.210;2023-01-26T01:04:46;56.83;;;20.73;;
5696;SDS011;2873;50.966;7.210;2023-01-26T01:07:11;61.63;;;21.33;;
5696;SDS011;2873;50.966;7.210;2023-01-26T01:09:37;59.78;;;19.67;;
5696;SDS011;2873;50.966;7.210;2023-01-26T01:12:02;50.40;;;19.57;;
5696;SDS011;2873;50.966;7.210;2023-01-26T01:14:28;58.80;;;20.60;;
5696;SDS011;2873;50.966;7.210;2023-01-26T01:16:54;55.13;;;18.83;;
5696;SDS011;2873;50.966;7.210;2023-01-26T01:19:19;63.03;;;20.23;;
5696;SDS011;2873;50.966;7.210;2023-01-26T01:21:45;66.90;;;20.70;;
5696;SDS011;2873;50.966;7.210;2023-01-26T01:24:11;65.35;;;21.23;;
5696;SDS011;2873;50.966;7.210;2023-01-26T01:26:37;59.03;;;20.50;;
5696;SDS011;2873;50.966;7.210;2023-01-26T01:29:03;64.67;;;20.50;;
5696;SDS011;2873;50.966;7.210;2023-01-26T01:31:30;62.92;;;21.20;;
5696;SDS011;2873;50.966;7.210;2023-01-26T01:33:55;63.97;;;22.10;;
5696;SDS011;2873;50.966;7.210;2023-01-26T01:36:22;65.03;;;21.13;;
5696;SDS011;2873;50.966;7.210;2023-01-26T01:38:48;58.72;;;20.73;;
5696;SDS011;2873;50.966;7.210;2023-01-26T01:41:18;56.03;;;18.67;;
5696;SDS011;2873;50.966;7.210;2023-01-26T01:43:44;56.40;;;19.85;;
5696;SDS011;2873;50.966;7.210;2023-01-26T01:51:24;57.05;;;19.92;;
5696;SDS011;2873;50.966;7.210;2023-01-26T01:54:09;53.80;;;19.27;;
5696;SDS011;2873;50.966;7.210;2023-01-26T01:56:39;50.40;;;18.48;;
5696;SDS011;2873;50.966;7.210;2023-01-26T01:59:08;56.22;;;19.23;;
5696;SDS011;2873;50.966;7.210;2023-01-26T02:01:36;56.10;;;19.05;;
5696;SDS011;2873;50.966;7.210;2023-01-26T02:04:02;51.03;;;19.40;;
5696;SDS011;2873;50.966;7.210;2023-01-26T02:09:11;57.35;;;19.15;;
5696;SDS011;2873;50.966;7.210;2023-01-26T02:11:58;55.47;;;19.37;;
5696;SDS011;2873;50.966;7.210;2023-01-26T02:14:26;60.15;;;21.15;;
5696;SDS011;2873;50.966;7.210;2023-01-26T02:16:53;68.30;;;22.40;;
5696;SDS011;2873;50.966;7.210;2023-01-26T02:19:27;64.40;;;21.33;;
5696;SDS011;2873;50.966;7.210;2023-01-26T02:22:09;60.35;;;20.80;;
5696;SDS011;2873;50.966;7.210;2023-01-26T02:24:50;64.50;;;21.00;;
5696;SDS011;2873;50.966;7.210;2023-01-26T02:27:19;58.97;;;19.95;;
5696;SDS011;2873;50.966;7.210;2023-01-26T02:29:45;57.38;;;19.75;;
5696;SDS011;2873;50.966;7.210;2023-01-26T02:32:10;56.78;;;20.13;;
5696;SDS011;2873;50.966;7.210;2023-01-26T02:34:36;60.40;;;19.90;;
5696;SDS011;2873;50.966;7.210;2023-01-26T02:37:01;55.92;;;20.50;;
5696;SDS011;2873;50.966;7.210;2023-01-26T02:39:40;55.53;;;19.48;;
5696;SDS011;2873;50.966;7.210;2023-01-26T02:42:12;54.40;;;19.92;;
5696;SDS011;2873;50.966;7.210;2023-01-26T02:44:57;56.67;;;20.10;;
5696;SDS011;2873;50.966;7.210;2023-01-26T02:47:23;53.30;;;20.40;;
5696;SDS011;2873;50.966;7.210;2023-01-26T02:49:48;60.90;;;20.70;;
5696;SDS011;2873;50.966;7.210;2023-01-26T02:52:18;60.35;;;21.05;;
5696;SDS011;2873;50.966;7.210;2023-01-26T02:54:45;60.00;;;21.52;;
5696;SDS011;2873;50.966;7.210;2023-01-26T02:57:29;60.20;;;19.88;;
5696;SDS011;2873;50.966;7.210;2023-01-26T02:59:56;62.05;;;21.05;;
5696;SDS011;2873;50.966;7.210;2023-01-26T03:02:21;65.10;;;21.70;;
5696;SDS011;2873;50.966;7.210;2023-01-26T03:04:47;62.13;;;21.52;;
5696;SDS011;2873;50.966;7.210;2023-01-26T03:07:12;65.60;;;22.23;;
5696;SDS011;2873;50.966;7.210;2023-01-26T03:09:38;64.65;;;22.63;;
5696;SDS011;2873;50.966;7.210;2023-01-26T03:12:03;66.00;;;21.20;;
5696;SDS011;2873;50.966;7.210;2023-01-26T03:14:29;63.57;;;21.23;;
5696;SDS011;2873;50.966;7.210;2023-01-26T03:16:55;68.70;;;21.33;;
5696;SDS011;2873;50.966;7.210;2023-01-26T03:19:20;68.80;;;21.73;;
5696;SDS011;2873;50.966;7.210;2023-01-26T03:22:07;69.28;;;21.15;;
5696;SDS011;2873;50.966;7.210;2023-01-26T03:24:52;68.03;;;20.83;;
5696;SDS011;2873;50.966;7.210;2023-01-26T03:27:40;68.07;;;21.87;;
5696;SDS011;2873;50.966;7.210;2023-01-26T03:30:09;70.68;;;21.60;;
5696;SDS011;2873;50.966;7.210;2023-01-26T03:32:35;68.93;;;21.70;;
5696;SDS011;2873;50.966;7.210;2023-01-26T03:35:01;75.40;;;22.23;;
5696;SDS011;2873;50.966;7.210;2023-01-26T03:37:26;73.00;;;22.17;;
5696;SDS011;2873;50.966;7.210;2023-01-26T03:40:01;76.93;;;22.52;;
5696;SDS011;2873;50.966;7.210;2023-01-26T03:42:46;70.45;;;22.38;;
5696;SDS011;2873;50.966;7.210;2023-01-26T03:45:30;78.40;;;23.00;;
5696;SDS011;2873;50.966;7.210;2023-01-26T03:48:14;80.97;;;23.30;;
5696;SDS011;2873;50.966;7.210;2023-01-26T03:50:58;80.38;;;22.88;;
5696;SDS011;2873;50.966;7.210;2023-01-26T03:53:42;78.22;;;22.60;;
5696;SDS011;2873;50.966;7.210;2023-01-26T03:56:27;79.72;;;22.48;;
5696;SDS011;2873;50.966;7.210;2023-01-26T03:58:57;81.05;;;23.70;;
5696;SDS011;2873;50.966;7.210;2023-01-26T04:01:32;91.32;;;24.42;;
5696;SDS011;2873;50.966;7.210;2023-01-26T04:04:02;82.45;;;25.35;;
5696;SDS011;2873;50.966;7.210;2023-01-26T04:06:48;103.35;;;25.85;;
5696;SDS011;2873;50.966;7.210;2023-01-26T04:09:33;101.32;;;26.00;;
5696;SDS011;2873;50.966;7.210;2023-01-26T04:12:00;92.22;;;25.48;;
5696;SDS011;2873;50.966;7.210;2023-01-26T04:14:26;99.72;;;25.27;;
5696;SDS011;2873;50.966;7.210;2023-01-26T04:17:11;94.43;;;25.70;;
5696;SDS011;2873;50.966;7.210;2023-01-26T04:19:55;99.13;;;25.50;;
5696;SDS011;2873;50.966;7.210;2023-01-26T04:22:39;91.63;;;24.93;;
5696;SDS011;2873;50.966;7.210;2023-01-26T04:25:10;95.53;;;24.83;;
5696;SDS011;2873;50.966;7.210;2023-01-26T04:27:38;92.15;;;26.30;;
5696;SDS011;2873;50.966;7.210;2023-01-26T04:30:05;94.05;;;26.60;;
5696;SDS011;2873;50.966;7.210;2023-01-26T04:32:32;101.13;;;27.70;;
5696;SDS011;2873;50.966;7.210;2023-01-26T04:34:57;93.57;;;26.40;;
5696;SDS011;2873;50.966;7.210;2023-01-26T04:37:23;102.57;;;27.47;;
5696;SDS011;2873;50.966;7.210;2023-01-26T04:39:48;96.70;;;26.85;;
5696;SDS011;2873;50.966;7.210;2023-01-26T04:42:14;98.37;;;28.37;;
5696;SDS011;2873;50.966;7.210;2023-01-26T04:44:39;100.15;;;27.67;;
5696;SDS011;2873;50.966;7.210;2023-01-26T04:47:05;111.23;;;28.97;;
5696;SDS011;2873;50.966;7.210;2023-01-26T04:49:31;87.50;;;26.00;;
5696;SDS011;2873;50.966;7.210;2023-01-26T04:51:56;87.57;;;25.10;;
5696;SDS011;2873;50.966;7.210;2023-01-26T04:54:22;100.10;;;27.43;;
5696;SDS011;2873;50.966;7.210;2023-01-26T04:56:47;106.22;;;27.23;;
5696;SDS011;2873;50.966;7.210;2023-01-26T04:59:13;100.47;;;27.53;;
5696;SDS011;2873;50.966;7.210;2023-01-26T05:01:39;91.17;;;25.20;;
5696;SDS011;2873;50.966;7.210;2023-01-26T05:04:05;92.97;;;26.45;;
5696;SDS011;2873;50.966;7.210;2023-01-26T05:06:31;89.00;;;26.08;;
5696;SDS011;2873;50.966;7.210;2023-01-26T05:08:57;92.32;;;25.60;;
5696;SDS011;2873;50.966;7.210;2023-01-26T05:11:22;89.40;;;25.98;;
5696;SDS011;2873;50.966;7.210;2023-01-26T05:13:48;95.10;;;24.92;;
5696;SDS011;2873;50.966;7.210;2023-01-26T05:16:14;96.40;;;25.23;;
5696;SDS011;2873;50.966;7.210;2023-01-26T05:18:40;97.00;;;26.70;;
5696;SDS011;2873;50.966;7.210;2023-01-26T05:21:06;103.63;;;26.70;;
5696;SDS011;2873;50.966;7.210;2023-01-26T05:23:33;105.97;;;28.27;;
5696;SDS011;2873;50.966;7.210;2023-01-26T05:25:58;97.63;;;26.70;;
5696;SDS011;2873;50.966;7.210;2023-01-26T05:28:24;86.33;;;25.00;;
5696;SDS011;2873;50.966;7.210;2023-01-26T05:30:50;86.33;;;26.33;;
5696;SDS011;2873;50.966;7.210;2023-01-26T05:33:16;91.65;;;27.08;;
5696;SDS011;2873;50.966;7.210;2023-01-26T05:35:45;81.00;;;24.00;;
5696;SDS011;2873;50.966;7.210;2023-01-26T05:38:15;99.63;;;26.55;;
5696;SDS011;2873;50.966;7.210;2023-01-26T05:40:40;92.07;;;26.73;;
5696;SDS011;2873;50.966;7.210;2023-01-26T05:43:06;97.87;;;25.33;;
5696;SDS011;2873;50.966;7.210;2023-01-26T05:45:34;94.82;;;24.60;;
5696;SDS011;2873;50.966;7.210;2023-01-26T05:48:00;86.22;;;24.98;;
5696;SDS011;2873;50.966;7.210;2023-01-26T05:50:26;76.93;;;23.17;;
5696;SDS011;2873;50.966;7.210;2023-01-26T05:52:52;78.78;;;22.70;;
5696;SDS011;2873;50.966;7.210;2023-01-26T05:55:18;81.73;;;22.53;;
5696;SDS011;2873;50.966;7.210;2023-01-26T05:57:43;76.72;;;22.65;;
5696;SDS011;2873;50.966;7.210;2023-01-26T06:00:10;74.78;;;22.05;;
5696;SDS011;2873;50.966;7.210;2023-01-26T06:02:36;75.95;;;23.38;;
5696;SDS011;2873;50.966;7.210;2023-01-26T06:05:02;73.47;;;23.10;;
5696;SDS011;2873;50.966;7.210;2023-01-26T06:07:29;76.00;;;22.70;;
5696;SDS011;2873;50.966;7.210;2023-01-26T06:09:54;75.50;;;22.23;;
5696;SDS011;2873;50.966;7.210;2023-01-26T06:12:20;74.00;;;22.58;;
5696;SDS011;2873;50.966;7.210;2023-01-26T06:14:46;66.53;;;21.45;;
5696;SDS011;2873;50.966;7.210;2023-01-26T06:17:12;68.70;;;22.35;;
5696;SDS011;2873;50.966;7.210;2023-01-26T06:19:39;70.00;;;21.77;;
5696;SDS011;2873;50.966;7.210;2023-01-26T06:22:11;67.88;;;22.90;;
5696;SDS011;2873;50.966;7.210;2023-01-26T06:24:38;80.13;;;21.95;;
5696;SDS011;2873;50.966;7.210;2023-01-26T06:27:05;71.90;;;22.47;;
5696;SDS011;2873;50.966;7.210;2023-01-26T06:29:32;76.53;;;23.00;;
5696;SDS011;2873;50.966;7.210;2023-01-26T06:31:58;72.20;;;21.83;;
5696;SDS011;2873;50.966;7.210;2023-01-26T06:34:24;69.23;;;22.87;;
5696;SDS011;2873;50.966;7.210;2023-01-26T06:36:50;76.10;;;23.17;;
5696;SDS011;2873;50.966;7.210;2023-01-26T06:39:16;82.07;;;23.70;;
5696;SDS011;2873;50.966;7.210;2023-01-26T06:41:42;65.90;;;21.60;;
5696;SDS011;2873;50.966;7.210;2023-01-26T06:44:08;72.33;;;22.00;;
5696;SDS011;2873;50.966;7.210;2023-01-26T06:46:34;75.88;;;22.58;;
5696;SDS011;2873;50.966;7.210;2023-01-26T06:49:01;79.28;;;23.25;;
5696;SDS011;2873;50.966;7.210;2023-01-26T06:54:11;70.13;;;21.95;;
5696;SDS011;2873;50.966;7.210;2023-01-26T06:56:38;69.87;;;22.10;;
5696;SDS011;2873;50.966;7.210;2023-01-26T06:59:04;78.00;;;22.20;;
5696;SDS011;2873;50.966;7.210;2023-01-26T07:01:35;68.03;;;21.77;;
5696;SDS011;2873;50.966;7.210;2023-01-26T07:04:05;71.37;;;21.80;;
5696;SDS011;2873;50.966;7.210;2023-01-26T07:06:31;77.03;;;22.13;;
5696;SDS011;2873;50.966;7.210;2023-01-26T07:08:57;76.65;;;22.38;;
5696;SDS011;2873;50.966;7.210;2023-01-26T07:11:22;70.00;;;21.30;;
5696;SDS011;2873;50.966;7.210;2023-01-26T07:13:49;66.70;;;20.35;;
5696;SDS011;2873;50.966;7.210;2023-01-26T07:16:15;62.53;;;18.80;;
5696;SDS011;2873;50.966;7.210;2023-01-26T07:18:42;58.85;;;19.30;;
5696;SDS011;2873;50.966;7.210;2023-01-26T07:21:14;68.72;;;21.30;;
5696;SDS011;2873;50.966;7.210;2023-01-26T07:23:45;57.60;;;19.10;;
5696;SDS011;2873;50.966;7.210;2023-01-26T07:26:11;55.58;;;18.42;;
5696;SDS011;2873;50.966;7.210;2023-01-26T07:28:37;48.50;;;17.20;;
5696;SDS011;2873;50.966;7.210;2023-01-26T07:31:04;48.20;;;16.85;;
5696;SDS011;2873;50.966;7.210;2023-01-26T07:33:30;50.20;;;17.90;;
5696;SDS011;2873;50.966;7.210;2023-01-26T07:35:57;54.60;;;17.80;;
5696;SDS011;2873;50.966;7.210;2023-01-26T07:38:23;45.83;;;16.75;;
5696;SDS011;2873;50.966;7.210;2023-01-26T07:40:49;54.75;;;16.70;;
5696;SDS011;2873;50.966;7.210;2023-01-26T07:43:15;48.88;;;16.63;;
5696;SDS011;2873;50.966;7.210;2023-01-26T07:45:44;49.17;;;17.40;;
5696;SDS011;2873;50.966;7.210;2023-01-26T07:48:17;55.75;;;18.38;;
5696;SDS011;2873;50.966;7.210;2023-01-26T07:50:43;58.28;;;19.33;;
5696;SDS011;2873;50.966;7.210;2023-01-26T07:53:11;60.17;;;20.13;;
5696;SDS011;2873;50.966;7.210;2023-01-26T07:55:39;50.38;;;17.50;;
5696;SDS011;2873;50.966;7.210;2023-01-26T07:58:07;56.63;;;18.33;;
5696;SDS011;2873;50.966;7.210;2023-01-26T08:00:33;49.25;;;16.95;;
5696;SDS011;2873;50.966;7.210;2023-01-26T08:02:59;47.77;;;17.37;;
5696;SDS011;2873;50.966;7.210;2023-01-26T08:05:25;52.00;;;18.17;;
5696;SDS011;2873;50.966;7.210;2023-01-26T08:07:50;55.05;;;17.48;;
5696;SDS011;2873;50.966;7.210;2023-01-26T08:10:16;62.33;;;19.73;;
5696;SDS011;2873;50.966;7.210;2023-01-26T08:12:42;57.58;;;19.65;;
5696;SDS011;2873;50.966;7.210;2023-01-26T08:15:07;56.27;;;17.93;;
5696;SDS011;2873;50.966;7.210;2023-01-26T08:17:34;52.63;;;17.90;;
5696;SDS011;2873;50.966;7.210;2023-01-26T08:20:00;56.63;;;18.83;;
5696;SDS011;2873;50.966;7.210;2023-01-26T08:22:25;56.30;;;19.60;;
5696;SDS011;2873;50.966;7.210;2023-01-26T08:24:51;53.43;;;18.23;;
5696;SDS011;2873;50.966;7.210;2023-01-26T08:27:17;52.00;;;18.30;;
5696;SDS011;2873;50.966;7.210;2023-01-26T08:29:42;49.30;;;17.33;;
5696;SDS011;2873;50.966;7.210;2023-01-26T08:32:08;56.90;;;18.40;;
5696;SDS011;2873;50.966;7.210;2023-01-26T08:34:34;51.50;;;17.83;;
5696;SDS011;2873;50.966;7.210;2023-01-26T08:36:59;50.60;;;18.47;;
5696;SDS011;2873;50.966;7.210;2023-01-26T08:39:26;50.42;;;17.45;;
5696;SDS011;2873;50.966;7.210;2023-01-26T08:41:51;51.58;;;18.33;;
5696;SDS011;2873;50.966;7.210;2023-01-26T08:44:18;51.33;;;17.25;;
5696;SDS011;2873;50.966;7.210;2023-01-26T08:46:43;53.35;;;18.10;;
5696;SDS011;2873;50.966;7.210;2023-01-26T08:49:09;51.97;;;17.80;;
5696;SDS011;2873;50.966;7.210;2023-01-26T08:51:35;57.63;;;18.90;;
5696;SDS011;2873;50.966;7.210;2023-01-26T08:54:01;53.40;;;17.88;;
5696;SDS011;2873;50.966;7.210;2023-01-26T08:56:28;56.63;;;19.95;;
5696;SDS011;2873;50.966;7.210;2023-01-26T08:58:54;59.20;;;19.37;;
5696;SDS011;2873;50.966;7.210;2023-01-26T09:01:20;52.23;;;17.20;;
5696;SDS011;2873;50.966;7.210;2023-01-26T09:03:45;48.43;;;16.80;;
5696;SDS011;2873;50.966;7.210;2023-01-26T09:06:11;45.97;;;16.90;;
5696;SDS011;2873;50.966;7.210;2023-01-26T09:08:38;48.72;;;17.10;;
5696;SDS011;2873;50.966;7.210;2023-01-26T09:11:04;49.60;;;17.50;;
5696;SDS011;2873;50.966;7.210;2023-01-26T09:13:31;52.27;;;18.17;;
5696;SDS011;2873;50.966;7.210;2023-01-26T09:15:56;48.23;;;17.40;;
5696;SDS011;2873;50.966;7.210;2023-01-26T09:18:22;51.83;;;18.35;;
5696;SDS011;2873;50.966;7.210;2023-01-26T09:20:47;54.27;;;19.00;;
5696;SDS011;2873;50.966;7.210;2023-01-26T09:23:15;52.73;;;19.87;;
5696;SDS011;2873;50.966;7.210;2023-01-26T09:25:42;54.63;;;19.07;;
5696;SDS011;2873;50.966;7.210;2023-01-26T09:28:08;62.00;;;18.50;;
5696;SDS011;2873;50.966;7.210;2023-01-26T09:30:33;38.73;;;15.57;;
5696;SDS011;2873;50.966;7.210;2023-01-26T09:33:00;44.53;;;16.77;;
5696;SDS011;2873;50.966;7.210;2023-01-26T09:35:27;44.13;;;16.75;;
5696;SDS011;2873;50.966;7.210;2023-01-26T09:37:53;52.83;;;17.90;;
5696;SDS011;2873;50.966;7.210;2023-01-26T09:40:26;53.87;;;18.20;;
5696;SDS011;2873;50.966;7.210;2023-01-26T09:51:20;62.17;;;19.63;;
5696;SDS011;2873;50.966;7.210;2023-01-26T09:53:52;57.93;;;19.70;;
5696;SDS011;2873;50.966;7.210;2023-01-26T09:56:22;63.80;;;20.58;;
5696;SDS011;2873;50.966;7.210;2023-01-26T09:59:01;59.47;;;18.87;;
5696;SDS011;2873;50.966;7.210;2023-01-26T10:04:11;53.05;;;17.25;;
5696;SDS011;2873;50.966;7.210;2023-01-26T10:06:46;61.40;;;19.10;;
5696;SDS011;2873;50.966;7.210;2023-01-26T10:09:14;53.92;;;17.88;;
5696;SDS011;2873;50.966;7.210;2023-01-26T10:11:57;57.63;;;19.17;;
5696;SDS011;2873;50.966;7.210;2023-01-26T10:17:14;65.78;;;20.63;;
5696;SDS011;2873;50.966;7.210;2023-01-26T10:19:50;73.15;;;20.90;;
5696;SDS011;2873;50.966;7.210;2023-01-26T10:22:25;69.20;;;19.35;;
5696;SDS011;2873;50.966;7.210;2023-01-26T10:25:16;72.20;;;20.73;;
5696;SDS011;2873;50.966;7.210;2023-01-26T10:27:43;80.50;;;22.08;;
5696;SDS011;2873;50.966;7.210;2023-01-26T10:30:15;69.43;;;20.42;;
5696;SDS011;2873;50.966;7.210;2023-01-26T10:32:44;72.47;;;21.23;;
5696;SDS011;2873;50.966;7.210;2023-01-26T10:35:15;75.78;;;21.60;;
5696;SDS011;2873;50.966;7.210;2023-01-26T10:37:44;68.68;;;21.58;;
5696;SDS011;2873;50.966;7.210;2023-01-26T10:40:09;73.05;;;21.10;;
5696;SDS011;2873;50.966;7.210;2023-01-26T10:42:36;71.28;;;20.55;;
5696;SDS011;2873;50.966;7.210;2023-01-26T10:45:03;78.38;;;21.65;;
5696;SDS011;2873;50.966;7.210;2023-01-26T10:50:41;76.78;;;22.77;;
5696;SDS011;2873;50.966;7.210;2023-01-26T10:53:09;73.23;;;22.40;;
5696;SDS011;2873;50.966;7.210;2023-01-26T10:55:40;93.40;;;23.27;;
5696;SDS011;2873;50.966;7.210;2023-01-26T10:58:11;63.13;;;20.77;;
5696;SDS011;2873;50.966;7.210;2023-01-26T11:01:10;65.70;;;21.00;;
5696;SDS011;2873;50.966;7.210;2023-01-26T11:03:39;71.45;;;21.65;;
5696;SDS011;2873;50.966;7.210;2023-01-26T11:06:12;67.50;;;20.63;;
5696;SDS011;2873;50.966;7.210;2023-01-26T11:08:39;72.05;;;19.67;;
5696;SDS011;2873;50.966;7.210;2023-01-26T11:11:05;73.03;;;22.10;;
5696;SDS011;2873;50.966;7.210;2023-01-26T11:13:45;67.67;;;21.00;;
5696;SDS011;2873;50.966;7.210;2023-01-26T11:16:21;61.67;;;20.57;;
5696;SDS011;2873;50.966;7.210;2023-01-26T11:18:54;64.63;;;19.42;;
5696;SDS011;2873;50.966;7.210;2023-01-26T11:21:35;69.10;;;19.92;;
5696;SDS011;2873;50.966;7.210;2023-01-26T11:27:01;66.05;;;19.48;;
5696;SDS011;2873;50.966;7.210;2023-01-26T11:33:04;64.22;;;20.88;;
5696;SDS011;2873;50.966;7.210;2023-01-26T11:35:31;66.87;;;19.87;;
5696;SDS011;2873;50.966;7.210;2023-01-26T11:38:12;58.38;;;20.02;;
5696;SDS011;2873;50.966;7.210;2023-01-26T11:41:01;63.97;;;20.02;;
5696;SDS011;2873;50.966;7.210;2023-01-26T11:43:58;56.90;;;19.20;;
5696;SDS011;2873;50.966;7.210;2023-01-26T11:49:38;57.47;;;18.02;;
5696;SDS011;2873;50.966;7.210;2023-01-26T11:52:18;56.75;;;19.55;;
5696;SDS011;2873;50.966;7.210;2023-01-26T12:02:42;51.40;;;16.67;;
5696;SDS011;2873;50.966;7.210;2023-01-26T12:05:23;47.63;;;17.10;;
5696;SDS011;2873;50.966;7.210;2023-01-26T12:07:54;51.15;;;18.10;;
5696;SDS011;2873;50.966;7.210;2023-01-26T12:10:32;61.55;;;19.67;;
5696;SDS011;2873;50.966;7.210;2023-01-26T12:16:02;56.15;;;18.65;;
5696;SDS011;2873;50.966;7.210;2023-01-26T12:18:42;62.83;;;20.30;;
5696;SDS011;2873;50.966;7.210;2023-01-26T12:21:15;60.03;;;19.95;;
5696;SDS011;2873;50.966;7.210;2023-01-26T12:26:17;67.03;;;21.40;;
5696;SDS011;2873;50.966;7.210;2023-01-26T12:31:42;69.75;;;22.17;;
5696;SDS011;2873;50.966;7.210;2023-01-26T12:34:13;72.88;;;22.85;;
5696;SDS011;2873;50.966;7.210;2023-01-26T12:39:38;72.60;;;22.30;;
5696;SDS011;2873;50.966;7.210;2023-01-26T12:45:14;77.65;;;23.67;;
5696;SDS011;2873;50.966;7.210;2023-01-26T12:47:49;75.18;;;23.48;;
5696;SDS011;2873;50.966;7.210;2023-01-26T12:52:59;63.42;;;20.98;;
5696;SDS011;2873;50.966;7.210;2023-01-26T12:55:41;70.60;;;21.50;;
5696;SDS011;2873;50.966;7.210;2023-01-26T12:58:12;75.63;;;21.50;;
5696;SDS011;2873;50.966;7.210;2023-01-26T13:00:47;73.63;;;22.10;;
5696;SDS011;2873;50.966;7.210;2023-01-26T13:03:17;74.45;;;22.02;;
5696;SDS011;2873;50.966;7.210;2023-01-26T13:05:56;68.57;;;21.65;;
5696;SDS011;2873;50.966;7.210;2023-01-26T13:10:54;66.43;;;21.42;;
5696;SDS011;2873;50.966;7.210;2023-01-26T13:13:25;66.33;;;19.93;;
5696;SDS011;2873;50.966;7.210;2023-01-26T13:18:51;60.17;;;20.60;;
5696;SDS011;2873;50.966;7.210;2023-01-26T13:21:30;49.63;;;17.42;;
5696;SDS011;2873;50.966;7.210;2023-01-26T13:26:40;49.42;;;16.40;;
5696;SDS011;2873;50.966;7.210;2023-01-26T13:31:53;42.37;;;16.37;;
5696;SDS011;2873;50.966;7.210;2023-01-26T13:34:40;46.13;;;16.85;;
5696;SDS011;2873;50.966;7.210;2023-01-26T13:39:53;48.15;;;17.63;;
5696;SDS011;2873;50.966;7.210;2023-01-26T13:42:29;45.33;;;17.23;;
5696;SDS011;2873;50.966;7.210;2023-01-26T13:45:05;47.22;;;17.08;;
5696;SDS011;2873;50.966;7.210;2023-01-26T13:47:43;43.65;;;16.08;;
5696;SDS011;2873;50.966;7.210;2023-01-26T13:50:27;44.03;;;16.73;;
5696;SDS011;2873;50.966;7.210;2023-01-26T13:52:57;50.97;;;18.05;;
5696;SDS011;2873;50.966;7.210;2023-01-26T13:55:24;47.30;;;16.77;;
5696;SDS011;2873;50.966;7.210;2023-01-26T13:58:17;47.13;;;16.80;;
5696;SDS011;2873;50.966;7.210;2023-01-26T14:03:28;41.10;;;17.13;;
5696;SDS011;2873;50.966;7.210;2023-01-26T14:08:26;42.20;;;15.70;;
5696;SDS011;2873;50.966;7.210;2023-01-26T14:10:52;41.17;;;16.08;;
5696;SDS011;2873;50.966;7.210;2023-01-26T14:13:19;41.45;;;16.48;;
5696;SDS011;2873;50.966;7.210;2023-01-26T14:15:58;39.58;;;15.13;;
5696;SDS011;2873;50.966;7.210;2023-01-26T14:18:25;43.20;;;15.95;;
5696;SDS011;2873;50.966;7.210;2023-01-26T14:20:58;45.22;;;16.27;;
5696;SDS011;2873;50.966;7.210;2023-01-26T14:23:34;44.40;;;16.38;;
5696;SDS011;2873;50.966;7.210;2023-01-26T14:28:30;43.33;;;15.80;;
5696;SDS011;2873;50.966;7.210;2023-01-26T14:31:32;44.55;;;16.55;;
5696;SDS011;2873;50.966;7.210;2023-01-26T14:33:52;41.50;;;16.27;;
5696;SDS011;2873;50.966;7.210;2023-01-26T14:36:22;41.47;;;16.00;;
5696;SDS011;2873;50.966;7.210;2023-01-26T14:38:50;43.50;;;15.80;;
5696;SDS011;2873;50.966;7.210;2023-01-26T14:41:27;44.30;;;16.75;;
5696;SDS011;2873;50.966;7.210;2023-01-26T14:43:56;38.10;;;16.13;;
5696;SDS011;2873;50.966;7.210;2023-01-26T14:51:27;38.58;;;15.00;;
5696;SDS011;2873;50.966;7.210;2023-01-26T14:53:57;38.65;;;14.38;;
5696;SDS011;2873;50.966;7.210;2023-01-26T14:56:37;37.47;;;16.00;;
5696;SDS011;2873;50.966;7.210;2023-01-26T14:59:05;36.53;;;13.73;;
5696;SDS011;2873;50.966;7.210;2023-01-26T15:01:32;34.25;;;15.30;;
5696;SDS011;2873;50.966;7.210;2023-01-26T15:04:01;34.42;;;14.13;;
5696;SDS011;2873;50.966;7.210;2023-01-26T15:06:35;30.75;;;13.90;;
5696;SDS011;2873;50.966;7.210;2023-01-26T15:09:03;35.55;;;14.63;;
5696;SDS011;2873;50.966;7.210;2023-01-26T15:11:50;35.03;;;14.93;;
5696;SDS011;2873;50.966;7.210;2023-01-26T15:19:55;38.15;;;16.58;;
5696;SDS011;2873;50.966;7.210;2023-01-26T15:22:23;35.60;;;15.70;;
5696;SDS011;2873;50.966;7.210;2023-01-26T15:25:04;38.33;;;15.60;;
5696;SDS011;2873;50.966;7.210;2023-01-26T15:27:42;37.67;;;14.57;;
5696;SDS011;2873;50.966;7.210;2023-01-26T15:30:15;37.50;;;16.38;;
5696;SDS011;2873;50.966;7.210;2023-01-26T15:32:43;39.85;;;17.10;;
5696;SDS011;2873;50.966;7.210;2023-01-26T15:35:23;43.28;;;19.85;;
5696;SDS011;2873;50.966;7.210;2023-01-26T15:38:08;33.77;;;16.17;;
5696;SDS011;2873;50.966;7.210;2023-01-26T15:40:35;33.03;;;14.50;;
5696;SDS011;2873;50.966;7.210;2023-01-26T15:43:15;33.72;;;13.65;;
5696;SDS011;2873;50.966;7.210;2023-01-26T15:45:55;34.47;;;14.68;;
5696;SDS011;2873;50.966;7.210;2023-01-26T15:48:22;32.85;;;14.18;;
5696;SDS011;2873;50.966;7.210;2023-01-26T15:50:48;32.80;;;14.90;;
5696;SDS011;2873;50.966;7.210;2023-01-26T15:53:16;38.10;;;14.52;;
5696;SDS011;2873;50.966;7.210;2023-01-26T15:55:44;31.88;;;13.93;;
5696;SDS011;2873;50.966;7.210;2023-01-26T15:58:10;33.60;;;14.40;;
5696;SDS011;2873;50.966;7.210;2023-01-26T16:00:36;29.35;;;13.35;;
5696;SDS011;2873;50.966;7.210;2023-01-26T16:03:04;31.55;;;13.88;;
5696;SDS011;2873;50.966;7.210;2023-01-26T16:05:35;37.97;;;17.58;;
5696;SDS011;2873;50.966;7.210;2023-01-26T16:08:01;37.37;;;17.53;;
5696;SDS011;2873;50.966;7.210;2023-01-26T16:10:26;32.00;;;15.63;;
5696;SDS011;2873;50.966;7.210;2023-01-26T16:12:52;29.13;;;13.53;;
5696;SDS011;2873;50.966;7.210;2023-01-26T16:17:49;29.08;;;13.90;;
5696;SDS011;2873;50.966;7.210;2023-01-26T16:20:15;26.87;;;12.37;;
5696;SDS011;2873;50.966;7.210;2023-01-26T16:22:42;28.70;;;13.55;;
5696;SDS011;2873;50.966;7.210;2023-01-26T16:25:26;27.63;;;13.47;;
5696;SDS011;2873;50.966;7.210;2023-01-26T16:27:54;26.02;;;12.80;;
5696;SDS011;2873;50.966;7.210;2023-01-26T16:30:21;26.15;;;12.38;;
5696;SDS011;2873;50.966;7.210;2023-01-26T16:32:48;39.08;;;19.30;;
5696;SDS011;2873;50.966;7.210;2023-01-26T16:35:15;57.00;;;33.97;;
5696;SDS011;2873;50.966;7.210;2023-01-26T16:37:45;30.20;;;16.33;;
5696;SDS011;2873;50.966;7.210;2023-01-26T16:40:11;43.05;;;23.70;;